sensor_id;sensor_type;location;lat;lon;timestamp;P1;durP1;ratioP1;P2;durP2;ratioP2
50429;SDS011;36359;41.556;-8.418;2023-12-14T00:00:31;13.70;;;8.27;;
50429;SDS011;36359;41.556;-8.418;2023-12-14T00:02:57;13.60;;;7.53;;
50429;SDS011;36359;41.556;-8.418;2023-12-14T00:05:23;19.77;;;8.87;;
50429;SDS011;36359;41.556;-8.418;2023-12-14T00:07:50;17.33;;;9.73;;
50429;SDS011;36359;41.556;-8.418;2023-12-14T00:10:16;19.23;;;10.83;;
50429;SDS011;36359;41.556;-8.418;2023-12-14T00:12:45;14.73;;;9.30;;
50429;SDS011;36359;41.556;-8.418;2023-12-14T00:15:10;17.47;;;9.73;;
50429;SDS011;36359;41.556;-8.418;2023-12-14T00:17:36;19.07;;;9.93;;
50429;SDS011;36359;41.556;-8.418;2023-12-14T00:20:02;18.90;;;11.23;;
50429;SDS011;36359;41.556;-8.418;2023-12-14T00:22:28;18.03;;;10.60;;
50429;SDS011;36359;41.556;-8.418;2023-12-14T00:24:54;20.60;;;10.80;;
50429;SDS011;36359;41.556;-8.418;2023-12-14T00:27:19;19.97;;;10.93;;
50429;SDS011;36359;41.556;-8.418;2023-12-14T00:29:45;16.00;;;10.17;;
50429;SDS011;36359;41.556;-8.418;2023-12-14T00:32:11;21.87;;;12.43;;
50429;SDS011;36359;41.556;-8.418;2023-12-14T00:34:37;19.87;;;11.43;;
50429;SDS011;36359;41.556;-8.418;2023-12-14T00:37:02;19.20;;;11.33;;
50429;SDS011;36359;41.556;-8.418;2023-12-14T00:39:28;21.57;;;12.07;;
50429;SDS011;36359;41.556;-8.418;2023-12-14T00:41:54;19.03;;;11.77;;
50429;SDS011;36359;41.556;-8.418;2023-12-14T00:44:20;23.43;;;11.17;;
50429;SDS011;36359;41.556;-8.418;2023-12-14T00:46:45;19.43;;;10.97;;
50429;SDS011;36359;41.556;-8.418;2023-12-14T00:49:11;20.57;;;11.43;;
50429;SDS011;36359;41.556;-8.418;2023-12-14T00:51:37;14.63;;;8.33;;
50429;SDS011;36359;41.556;-8.418;2023-12-14T00:54:03;18.47;;;9.70;;
50429;SDS011;36359;41.556;-8.418;2023-12-14T00:56:29;20.40;;;10.10;;
50429;SDS011;36359;41.556;-8.418;2023-12-14T00:58:54;19.47;;;10.30;;
50429;SDS011;36359;41.556;-8.418;2023-12-14T01:01:20;20.20;;;10.10;;
50429;SDS011;36359;41.556;-8.418;2023-12-14T01:03:46;16.67;;;10.00;;
50429;SDS011;36359;41.556;-8.418;2023-12-14T01:06:11;18.17;;;10.17;;
50429;SDS011;36359;41.556;-8.418;2023-12-14T01:08:37;19.77;;;10.63;;
50429;SDS011;36359;41.556;-8.418;2023-12-14T01:11:03;18.13;;;10.17;;
50429;SDS011;36359;41.556;-8.418;2023-12-14T01:13:29;17.37;;;10.23;;
50429;SDS011;36359;41.556;-8.418;2023-12-14T01:15:54;19.47;;;10.60;;
50429;SDS011;36359;41.556;-8.418;2023-12-14T01:18:20;15.50;;;9.77;;
50429;SDS011;36359;41.556;-8.418;2023-12-14T01:20:46;19.00;;;12.07;;
50429;SDS011;36359;41.556;-8.418;2023-12-14T01:23:12;18.90;;;12.30;;
50429;SDS011;36359;41.556;-8.418;2023-12-14T01:25:37;19.73;;;14.30;;
50429;SDS011;36359;41.556;-8.418;2023-12-14T01:28:03;19.80;;;13.10;;
50429;SDS011;36359;41.556;-8.418;2023-12-14T01:30:29;20.07;;;14.03;;
50429;SDS011;36359;41.556;-8.418;2023-12-14T01:32:55;21.20;;;12.93;;
50429;SDS011;36359;41.556;-8.418;2023-12-14T01:35:21;21.13;;;12.87;;
50429;SDS011;36359;41.556;-8.418;2023-12-14T01:37:46;21.30;;;12.17;;
50429;SDS011;36359;41.556;-8.418;2023-12-14T01:40:12;14.97;;;9.70;;
50429;SDS011;36359;41.556;-8.418;2023-12-14T01:42:38;17.43;;;8.67;;
50429;SDS011;36359;41.556;-8.418;2023-12-14T01:45:04;14.37;;;8.83;;
50429;SDS011;36359;41.556;-8.418;2023-12-14T01:47:31;17.17;;;8.17;;
50429;SDS011;36359;41.556;-8.418;2023-12-14T01:49:56;17.47;;;7.33;;
50429;SDS011;36359;41.556;-8.418;2023-12-14T01:52:22;12.10;;;7.23;;
50429;SDS011;36359;41.556;-8.418;2023-12-14T01:54:48;17.90;;;7.50;;
50429;SDS011;36359;41.556;-8.418;2023-12-14T01:57:13;12.83;;;6.50;;
50429;SDS011;36359;41.556;-8.418;2023-12-14T01:59:39;13.20;;;7.03;;
50429;SDS011;36359;41.556;-8.418;2023-12-14T02:02:05;17.23;;;7.90;;
50429;SDS011;36359;41.556;-8.418;2023-12-14T02:04:31;13.07;;;7.30;;
50429;SDS011;36359;41.556;-8.418;2023-12-14T02:06:57;13.70;;;6.60;;
50429;SDS011;36359;41.556;-8.418;2023-12-14T02:09:22;16.23;;;6.87;;
50429;SDS011;36359;41.556;-8.418;2023-12-14T02:11:48;15.20;;;6.07;;
50429;SDS011;36359;41.556;-8.418;2023-12-14T02:14:14;16.50;;;6.47;;
50429;SDS011;36359;41.556;-8.418;2023-12-14T02:16:40;13.57;;;5.67;;
50429;SDS011;36359;41.556;-8.418;2023-12-14T02:19:05;15.17;;;6.50;;
50429;SDS011;36359;41.556;-8.418;2023-12-14T02:21:31;14.97;;;6.53;;
50429;SDS011;36359;41.556;-8.418;2023-12-14T02:23:57;11.53;;;6.43;;
50429;SDS011;36359;41.556;-8.418;2023-12-14T02:26:23;16.03;;;8.23;;
50429;SDS011;36359;41.556;-8.418;2023-12-14T02:28:48;12.27;;;7.07;;
50429;SDS011;36359;41.556;-8.418;2023-12-14T02:31:14;14.37;;;8.27;;
50429;SDS011;36359;41.556;-8.418;2023-12-14T02:33:40;15.57;;;9.00;;
50429;SDS011;36359;41.556;-8.418;2023-12-14T02:36:06;14.53;;;9.23;;
50429;SDS011;36359;41.556;-8.418;2023-12-14T02:38:32;16.33;;;9.17;;
50429;SDS011;36359;41.556;-8.418;2023-12-14T02:40:58;16.03;;;8.13;;
50429;SDS011;36359;41.556;-8.418;2023-12-14T02:43:24;12.90;;;8.13;;
50429;SDS011;36359;41.556;-8.418;2023-12-14T02:45:50;16.97;;;8.50;;
50429;SDS011;36359;41.556;-8.418;2023-12-14T02:48:15;11.67;;;6.93;;
50429;SDS011;36359;41.556;-8.418;2023-12-14T02:50:41;13.70;;;6.07;;
50429;SDS011;36359;41.556;-8.418;2023-12-14T02:53:07;12.93;;;6.70;;
50429;SDS011;36359;41.556;-8.418;2023-12-14T02:55:33;14.10;;;6.97;;
50429;SDS011;36359;41.556;-8.418;2023-12-14T02:57:58;10.20;;;6.37;;
50429;SDS011;36359;41.556;-8.418;2023-12-14T03:00:24;12.40;;;6.73;;
50429;SDS011;36359;41.556;-8.418;2023-12-14T03:02:50;12.97;;;7.13;;
50429;SDS011;36359;41.556;-8.418;2023-12-14T03:05:15;10.67;;;6.37;;
50429;SDS011;36359;41.556;-8.418;2023-12-14T03:07:41;11.40;;;6.40;;
50429;SDS011;36359;41.556;-8.418;2023-12-14T03:10:07;11.50;;;6.13;;
50429;SDS011;36359;41.556;-8.418;2023-12-14T03:12:33;13.17;;;7.10;;
50429;SDS011;36359;41.556;-8.418;2023-12-14T03:14:59;14.67;;;6.20;;
50429;SDS011;36359;41.556;-8.418;2023-12-14T03:17:25;11.17;;;5.70;;
50429;SDS011;36359;41.556;-8.418;2023-12-14T03:19:50;10.53;;;6.10;;
50429;SDS011;36359;41.556;-8.418;2023-12-14T03:22:16;12.70;;;6.60;;
50429;SDS011;36359;41.556;-8.418;2023-12-14T03:24:42;10.63;;;5.17;;
50429;SDS011;36359;41.556;-8.418;2023-12-14T03:27:08;9.43;;;4.77;;
50429;SDS011;36359;41.556;-8.418;2023-12-14T03:29:33;11.07;;;4.50;;
50429;SDS011;36359;41.556;-8.418;2023-12-14T03:32:00;12.20;;;5.10;;
50429;SDS011;36359;41.556;-8.418;2023-12-14T03:34:25;9.53;;;5.33;;
50429;SDS011;36359;41.556;-8.418;2023-12-14T03:36:51;10.87;;;4.83;;
50429;SDS011;36359;41.556;-8.418;2023-12-14T03:39:17;9.80;;;4.90;;
50429;SDS011;36359;41.556;-8.418;2023-12-14T03:41:43;10.07;;;4.77;;
50429;SDS011;36359;41.556;-8.418;2023-12-14T03:44:12;16.27;;;5.13;;
50429;SDS011;36359;41.556;-8.418;2023-12-14T03:46:38;10.90;;;7.13;;
50429;SDS011;36359;41.556;-8.418;2023-12-14T03:49:03;15.50;;;7.43;;
50429;SDS011;36359;41.556;-8.418;2023-12-14T03:51:29;15.77;;;10.17;;
50429;SDS011;36359;41.556;-8.418;2023-12-14T03:53:55;16.60;;;10.40;;
50429;SDS011;36359;41.556;-8.418;2023-12-14T03:56:21;18.93;;;10.33;;
50429;SDS011;36359;41.556;-8.418;2023-12-14T03:58:47;18.77;;;10.50;;
50429;SDS011;36359;41.556;-8.418;2023-12-14T04:01:17;17.90;;;11.10;;
50429;SDS011;36359;41.556;-8.418;2023-12-14T04:03:43;21.40;;;10.40;;
50429;SDS011;36359;41.556;-8.418;2023-12-14T04:06:10;15.50;;;10.67;;
50429;SDS011;36359;41.556;-8.418;2023-12-14T04:08:36;20.90;;;10.90;;
50429;SDS011;36359;41.556;-8.418;2023-12-14T04:11:02;16.27;;;9.80;;
50429;SDS011;36359;41.556;-8.418;2023-12-14T04:13:28;18.63;;;9.43;;
50429;SDS011;36359;41.556;-8.418;2023-12-14T04:15:54;14.23;;;7.20;;
50429;SDS011;36359;41.556;-8.418;2023-12-14T04:18:20;13.23;;;5.83;;
50429;SDS011;36359;41.556;-8.418;2023-12-14T04:20:45;9.60;;;5.03;;
50429;SDS011;36359;41.556;-8.418;2023-12-14T04:23:11;8.97;;;5.30;;
50429;SDS011;36359;41.556;-8.418;2023-12-14T04:25:37;12.13;;;6.20;;
50429;SDS011;36359;41.556;-8.418;2023-12-14T04:28:02;11.20;;;6.43;;
50429;SDS011;36359;41.556;-8.418;2023-12-14T04:30:28;13.60;;;8.13;;
50429;SDS011;36359;41.556;-8.418;2023-12-14T04:32:54;17.63;;;7.80;;
50429;SDS011;36359;41.556;-8.418;2023-12-14T04:35:20;14.83;;;8.57;;
50429;SDS011;36359;41.556;-8.418;2023-12-14T04:37:47;11.20;;;6.47;;
50429;SDS011;36359;41.556;-8.418;2023-12-14T04:40:13;11.13;;;6.00;;
50429;SDS011;36359;41.556;-8.418;2023-12-14T04:42:39;10.73;;;5.87;;
50429;SDS011;36359;41.556;-8.418;2023-12-14T04:45:05;10.40;;;6.50;;
50429;SDS011;36359;41.556;-8.418;2023-12-14T04:47:31;9.93;;;6.30;;
50429;SDS011;36359;41.556;-8.418;2023-12-14T04:49:57;10.73;;;6.20;;
50429;SDS011;36359;41.556;-8.418;2023-12-14T04:52:23;7.83;;;5.83;;
50429;SDS011;36359;41.556;-8.418;2023-12-14T04:54:49;7.77;;;5.90;;
50429;SDS011;36359;41.556;-8.418;2023-12-14T04:57:14;9.37;;;5.20;;
50429;SDS011;36359;41.556;-8.418;2023-12-14T04:59:41;8.07;;;5.10;;
50429;SDS011;36359;41.556;-8.418;2023-12-14T05:02:07;11.00;;;5.57;;
50429;SDS011;36359;41.556;-8.418;2023-12-14T05:04:33;7.73;;;4.87;;
50429;SDS011;36359;41.556;-8.418;2023-12-14T05:06:58;8.77;;;4.50;;
50429;SDS011;36359;41.556;-8.418;2023-12-14T05:09:24;10.73;;;4.40;;
50429;SDS011;36359;41.556;-8.418;2023-12-14T05:11:50;9.27;;;4.27;;
50429;SDS011;36359;41.556;-8.418;2023-12-14T05:14:16;8.47;;;4.33;;
50429;SDS011;36359;41.556;-8.418;2023-12-14T05:16:43;7.57;;;3.50;;
50429;SDS011;36359;41.556;-8.418;2023-12-14T05:19:09;5.97;;;2.80;;
50429;SDS011;36359;41.556;-8.418;2023-12-14T05:21:34;6.73;;;2.60;;
50429;SDS011;36359;41.556;-8.418;2023-12-14T05:24:00;5.27;;;2.70;;
50429;SDS011;36359;41.556;-8.418;2023-12-14T05:26:26;7.67;;;3.90;;
50429;SDS011;36359;41.556;-8.418;2023-12-14T05:28:52;9.37;;;5.00;;
50429;SDS011;36359;41.556;-8.418;2023-12-14T05:31:19;9.70;;;4.90;;
50429;SDS011;36359;41.556;-8.418;2023-12-14T05:33:44;10.23;;;5.17;;
50429;SDS011;36359;41.556;-8.418;2023-12-14T05:36:10;12.43;;;5.90;;
50429;SDS011;36359;41.556;-8.418;2023-12-14T05:38:39;13.07;;;7.53;;
50429;SDS011;36359;41.556;-8.418;2023-12-14T05:41:05;14.13;;;8.27;;
50429;SDS011;36359;41.556;-8.418;2023-12-14T05:43:31;15.90;;;9.73;;
50429;SDS011;36359;41.556;-8.418;2023-12-14T05:45:57;17.90;;;11.53;;
50429;SDS011;36359;41.556;-8.418;2023-12-14T05:48:23;13.67;;;9.60;;
50429;SDS011;36359;41.556;-8.418;2023-12-14T05:50:51;14.50;;;9.20;;
50429;SDS011;36359;41.556;-8.418;2023-12-14T05:53:16;17.00;;;9.03;;
50429;SDS011;36359;41.556;-8.418;2023-12-14T05:55:42;13.87;;;9.30;;
50429;SDS011;36359;41.556;-8.418;2023-12-14T05:58:08;15.77;;;9.30;;
50429;SDS011;36359;41.556;-8.418;2023-12-14T06:00:34;14.50;;;8.90;;
50429;SDS011;36359;41.556;-8.418;2023-12-14T06:03:01;15.37;;;9.27;;
50429;SDS011;36359;41.556;-8.418;2023-12-14T06:05:27;14.03;;;8.33;;
50429;SDS011;36359;41.556;-8.418;2023-12-14T06:07:53;10.60;;;7.30;;
50429;SDS011;36359;41.556;-8.418;2023-12-14T06:10:18;6.97;;;4.30;;
50429;SDS011;36359;41.556;-8.418;2023-12-14T06:12:44;8.17;;;4.17;;
50429;SDS011;36359;41.556;-8.418;2023-12-14T06:15:10;10.37;;;5.50;;
50429;SDS011;36359;41.556;-8.418;2023-12-14T06:17:36;13.03;;;6.70;;
50429;SDS011;36359;41.556;-8.418;2023-12-14T06:20:04;11.77;;;7.43;;
50429;SDS011;36359;41.556;-8.418;2023-12-14T06:22:34;11.40;;;7.83;;
50429;SDS011;36359;41.556;-8.418;2023-12-14T06:25:01;12.00;;;7.50;;
50429;SDS011;36359;41.556;-8.418;2023-12-14T06:27:28;12.93;;;7.73;;
50429;SDS011;36359;41.556;-8.418;2023-12-14T06:29:54;15.47;;;7.87;;
50429;SDS011;36359;41.556;-8.418;2023-12-14T06:32:20;13.30;;;7.43;;
50429;SDS011;36359;41.556;-8.418;2023-12-14T06:34:46;11.33;;;7.40;;
50429;SDS011;36359;41.556;-8.418;2023-12-14T06:37:11;10.90;;;6.20;;
50429;SDS011;36359;41.556;-8.418;2023-12-14T06:39:37;8.60;;;4.47;;
50429;SDS011;36359;41.556;-8.418;2023-12-14T06:42:03;7.43;;;4.00;;
50429;SDS011;36359;41.556;-8.418;2023-12-14T06:44:29;7.80;;;4.73;;
50429;SDS011;36359;41.556;-8.418;2023-12-14T06:46:56;8.40;;;5.23;;
50429;SDS011;36359;41.556;-8.418;2023-12-14T06:49:23;10.03;;;5.97;;
50429;SDS011;36359;41.556;-8.418;2023-12-14T06:51:50;9.10;;;5.60;;
50429;SDS011;36359;41.556;-8.418;2023-12-14T06:54:16;12.43;;;6.23;;
50429;SDS011;36359;41.556;-8.418;2023-12-14T06:56:41;12.47;;;6.43;;
50429;SDS011;36359;41.556;-8.418;2023-12-14T06:59:07;11.80;;;5.60;;
50429;SDS011;36359;41.556;-8.418;2023-12-14T07:01:33;8.07;;;4.70;;
50429;SDS011;36359;41.556;-8.418;2023-12-14T07:03:59;7.90;;;3.63;;
50429;SDS011;36359;41.556;-8.418;2023-12-14T07:06:25;9.83;;;4.63;;
50429;SDS011;36359;41.556;-8.418;2023-12-14T07:08:50;8.37;;;4.10;;
50429;SDS011;36359;41.556;-8.418;2023-12-14T07:11:16;11.23;;;5.00;;
50429;SDS011;36359;41.556;-8.418;2023-12-14T07:13:42;8.70;;;5.03;;
50429;SDS011;36359;41.556;-8.418;2023-12-14T07:16:09;12.00;;;6.27;;
50429;SDS011;36359;41.556;-8.418;2023-12-14T07:18:36;8.63;;;5.00;;
50429;SDS011;36359;41.556;-8.418;2023-12-14T07:21:03;13.50;;;7.10;;
50429;SDS011;36359;41.556;-8.418;2023-12-14T07:23:29;12.40;;;6.33;;
50429;SDS011;36359;41.556;-8.418;2023-12-14T07:25:55;13.77;;;6.63;;
50429;SDS011;36359;41.556;-8.418;2023-12-14T07:28:21;10.33;;;5.37;;
50429;SDS011;36359;41.556;-8.418;2023-12-14T07:30:47;8.03;;;4.53;;
50429;SDS011;36359;41.556;-8.418;2023-12-14T07:33:13;8.40;;;4.03;;
50429;SDS011;36359;41.556;-8.418;2023-12-14T07:35:40;6.63;;;3.97;;
50429;SDS011;36359;41.556;-8.418;2023-12-14T07:38:05;13.10;;;7.73;;
50429;SDS011;36359;41.556;-8.418;2023-12-14T07:40:31;16.60;;;8.00;;
50429;SDS011;36359;41.556;-8.418;2023-12-14T07:42:57;13.07;;;6.07;;
50429;SDS011;36359;41.556;-8.418;2023-12-14T07:45:26;9.50;;;4.13;;
50429;SDS011;36359;41.556;-8.418;2023-12-14T07:47:52;10.13;;;4.27;;
50429;SDS011;36359;41.556;-8.418;2023-12-14T07:50:19;10.90;;;4.93;;
50429;SDS011;36359;41.556;-8.418;2023-12-14T07:52:45;12.03;;;5.80;;
50429;SDS011;36359;41.556;-8.418;2023-12-14T07:55:10;9.20;;;4.70;;
50429;SDS011;36359;41.556;-8.418;2023-12-14T07:57:39;12.07;;;5.60;;
50429;SDS011;36359;41.556;-8.418;2023-12-14T08:00:05;23.97;;;11.90;;
50429;SDS011;36359;41.556;-8.418;2023-12-14T08:02:33;17.87;;;11.67;;
50429;SDS011;36359;41.556;-8.418;2023-12-14T08:04:59;19.30;;;10.20;;
50429;SDS011;36359;41.556;-8.418;2023-12-14T08:07:25;12.60;;;4.87;;
50429;SDS011;36359;41.556;-8.418;2023-12-14T08:09:54;9.40;;;3.23;;
50429;SDS011;36359;41.556;-8.418;2023-12-14T08:12:21;11.43;;;5.30;;
50429;SDS011;36359;41.556;-8.418;2023-12-14T08:14:48;15.13;;;7.40;;
50429;SDS011;36359;41.556;-8.418;2023-12-14T08:17:14;8.87;;;4.70;;
50429;SDS011;36359;41.556;-8.418;2023-12-14T08:19:40;10.13;;;4.60;;
50429;SDS011;36359;41.556;-8.418;2023-12-14T08:22:06;11.17;;;4.53;;
50429;SDS011;36359;41.556;-8.418;2023-12-14T08:24:33;18.33;;;5.30;;
50429;SDS011;36359;41.556;-8.418;2023-12-14T08:26:58;13.73;;;6.80;;
50429;SDS011;36359;41.556;-8.418;2023-12-14T08:29:24;15.30;;;6.03;;
50429;SDS011;36359;41.556;-8.418;2023-12-14T08:31:50;16.40;;;6.97;;
50429;SDS011;36359;41.556;-8.418;2023-12-14T08:34:16;13.07;;;6.93;;
50429;SDS011;36359;41.556;-8.418;2023-12-14T08:36:42;13.03;;;7.97;;
50429;SDS011;36359;41.556;-8.418;2023-12-14T08:39:07;10.67;;;4.53;;
50429;SDS011;36359;41.556;-8.418;2023-12-14T08:41:33;12.47;;;5.57;;
50429;SDS011;36359;41.556;-8.418;2023-12-14T08:43:59;18.23;;;8.13;;
50429;SDS011;36359;41.556;-8.418;2023-12-14T08:46:25;17.57;;;9.00;;
50429;SDS011;36359;41.556;-8.418;2023-12-14T08:48:50;18.13;;;8.47;;
50429;SDS011;36359;41.556;-8.418;2023-12-14T08:51:17;11.80;;;7.10;;
50429;SDS011;36359;41.556;-8.418;2023-12-14T08:53:44;18.63;;;11.07;;
50429;SDS011;36359;41.556;-8.418;2023-12-14T08:56:10;25.90;;;14.37;;
50429;SDS011;36359;41.556;-8.418;2023-12-14T08:58:35;17.97;;;11.23;;
50429;SDS011;36359;41.556;-8.418;2023-12-14T09:01:01;29.83;;;14.43;;
50429;SDS011;36359;41.556;-8.418;2023-12-14T09:03:27;45.27;;;26.67;;
50429;SDS011;36359;41.556;-8.418;2023-12-14T09:05:52;40.40;;;20.97;;
50429;SDS011;36359;41.556;-8.418;2023-12-14T09:08:18;28.30;;;17.20;;
50429;SDS011;36359;41.556;-8.418;2023-12-14T09:10:44;43.27;;;23.57;;
50429;SDS011;36359;41.556;-8.418;2023-12-14T09:13:10;13.73;;;6.87;;
50429;SDS011;36359;41.556;-8.418;2023-12-14T09:15:36;31.50;;;19.50;;
50429;SDS011;36359;41.556;-8.418;2023-12-14T09:18:02;26.97;;;16.43;;
50429;SDS011;36359;41.556;-8.418;2023-12-14T09:20:28;26.77;;;16.67;;
50429;SDS011;36359;41.556;-8.418;2023-12-14T09:22:53;23.47;;;12.03;;
50429;SDS011;36359;41.556;-8.418;2023-12-14T09:25:19;23.50;;;12.37;;
50429;SDS011;36359;41.556;-8.418;2023-12-14T09:27:45;18.27;;;10.63;;
50429;SDS011;36359;41.556;-8.418;2023-12-14T09:30:11;18.70;;;8.83;;
50429;SDS011;36359;41.556;-8.418;2023-12-14T09:32:38;16.50;;;8.20;;
50429;SDS011;36359;41.556;-8.418;2023-12-14T09:35:05;14.87;;;7.17;;
50429;SDS011;36359;41.556;-8.418;2023-12-14T09:37:31;10.13;;;4.40;;
50429;SDS011;36359;41.556;-8.418;2023-12-14T09:39:57;14.00;;;5.67;;
50429;SDS011;36359;41.556;-8.418;2023-12-14T09:42:23;7.33;;;3.70;;
50429;SDS011;36359;41.556;-8.418;2023-12-14T09:44:49;9.20;;;3.43;;
50429;SDS011;36359;41.556;-8.418;2023-12-14T09:47:17;10.60;;;3.27;;
50429;SDS011;36359;41.556;-8.418;2023-12-14T09:49:43;11.43;;;5.10;;
50429;SDS011;36359;41.556;-8.418;2023-12-14T09:52:10;7.90;;;5.00;;
50429;SDS011;36359;41.556;-8.418;2023-12-14T09:54:36;10.43;;;4.50;;
50429;SDS011;36359;41.556;-8.418;2023-12-14T09:57:03;8.33;;;4.30;;
50429;SDS011;36359;41.556;-8.418;2023-12-14T09:59:29;7.67;;;4.47;;
50429;SDS011;36359;41.556;-8.418;2023-12-14T10:02:11;5.73;;;2.80;;
50429;SDS011;36359;41.556;-8.418;2023-12-14T10:04:37;7.13;;;2.90;;
50429;SDS011;36359;41.556;-8.418;2023-12-14T10:07:03;9.50;;;2.40;;
50429;SDS011;36359;41.556;-8.418;2023-12-14T10:09:32;7.73;;;4.70;;
50429;SDS011;36359;41.556;-8.418;2023-12-14T10:12:02;6.63;;;3.47;;
50429;SDS011;36359;41.556;-8.418;2023-12-14T10:14:30;10.77;;;3.10;;
50429;SDS011;36359;41.556;-8.418;2023-12-14T10:16:56;6.00;;;2.27;;
50429;SDS011;36359;41.556;-8.418;2023-12-14T10:19:23;9.60;;;2.90;;
50429;SDS011;36359;41.556;-8.418;2023-12-14T10:21:49;8.47;;;2.63;;
50429;SDS011;36359;41.556;-8.418;2023-12-14T10:24:16;8.17;;;3.33;;
50429;SDS011;36359;41.556;-8.418;2023-12-14T10:26:45;10.60;;;3.43;;
50429;SDS011;36359;41.556;-8.418;2023-12-14T10:29:11;7.40;;;2.80;;
50429;SDS011;36359;41.556;-8.418;2023-12-14T10:31:37;9.47;;;1.60;;
50429;SDS011;36359;41.556;-8.418;2023-12-14T10:34:06;9.67;;;2.13;;
50429;SDS011;36359;41.556;-8.418;2023-12-14T10:36:32;9.83;;;3.53;;
50429;SDS011;36359;41.556;-8.418;2023-12-14T10:38:59;9.67;;;4.00;;
50429;SDS011;36359;41.556;-8.418;2023-12-14T10:41:25;13.27;;;3.90;;
50429;SDS011;36359;41.556;-8.418;2023-12-14T10:43:55;10.93;;;3.30;;
50429;SDS011;36359;41.556;-8.418;2023-12-14T10:46:23;11.60;;;3.90;;
50429;SDS011;36359;41.556;-8.418;2023-12-14T10:48:50;9.47;;;3.20;;
50429;SDS011;36359;41.556;-8.418;2023-12-14T10:51:20;9.27;;;3.57;;
50429;SDS011;36359;41.556;-8.418;2023-12-14T10:53:47;7.60;;;3.53;;
50429;SDS011;36359;41.556;-8.418;2023-12-14T10:56:14;9.17;;;3.97;;
50429;SDS011;36359;41.556;-8.418;2023-12-14T10:58:50;10.60;;;3.93;;
50429;SDS011;36359;41.556;-8.418;2023-12-14T11:01:17;9.63;;;2.70;;
50429;SDS011;36359;41.556;-8.418;2023-12-14T11:03:45;6.40;;;1.70;;
50429;SDS011;36359;41.556;-8.418;2023-12-14T11:06:32;12.87;;;4.97;;
50429;SDS011;36359;41.556;-8.418;2023-12-14T11:09:04;7.07;;;2.50;;
50429;SDS011;36359;41.556;-8.418;2023-12-14T11:14:25;10.70;;;4.07;;
50429;SDS011;36359;41.556;-8.418;2023-12-14T11:16:56;9.20;;;4.03;;
50429;SDS011;36359;41.556;-8.418;2023-12-14T11:19:28;6.90;;;2.73;;
50429;SDS011;36359;41.556;-8.418;2023-12-14T11:24:23;23.23;;;7.50;;
50429;SDS011;36359;41.556;-8.418;2023-12-14T11:26:49;11.03;;;5.17;;
50429;SDS011;36359;41.556;-8.418;2023-12-14T11:29:16;10.73;;;4.27;;
50429;SDS011;36359;41.556;-8.418;2023-12-14T11:31:42;11.83;;;3.67;;
50429;SDS011;36359;41.556;-8.418;2023-12-14T11:34:08;10.70;;;4.07;;
50429;SDS011;36359;41.556;-8.418;2023-12-14T11:36:34;12.87;;;4.00;;
50429;SDS011;36359;41.556;-8.418;2023-12-14T11:39:00;10.60;;;3.60;;
50429;SDS011;36359;41.556;-8.418;2023-12-14T11:41:26;8.80;;;4.07;;
50429;SDS011;36359;41.556;-8.418;2023-12-14T11:43:54;11.27;;;4.10;;
50429;SDS011;36359;41.556;-8.418;2023-12-14T11:46:20;15.03;;;7.07;;
50429;SDS011;36359;41.556;-8.418;2023-12-14T11:48:46;9.23;;;4.85;;
50429;SDS011;36359;41.556;-8.418;2023-12-14T11:51:15;13.77;;;6.53;;
50429;SDS011;36359;41.556;-8.418;2023-12-14T11:53:43;11.38;;;5.70;;
50429;SDS011;36359;41.556;-8.418;2023-12-14T11:56:11;10.77;;;4.63;;
50429;SDS011;36359;41.556;-8.418;2023-12-14T11:58:39;9.48;;;4.88;;
50429;SDS011;36359;41.556;-8.418;2023-12-14T12:01:16;10.90;;;4.50;;
50429;SDS011;36359;41.556;-8.418;2023-12-14T12:03:43;9.55;;;4.03;;
50429;SDS011;36359;41.556;-8.418;2023-12-14T12:06:19;12.68;;;5.53;;
50429;SDS011;36359;41.556;-8.418;2023-12-14T12:08:49;9.15;;;4.00;;
50429;SDS011;36359;41.556;-8.418;2023-12-14T12:11:18;9.63;;;4.32;;
50429;SDS011;36359;41.556;-8.418;2023-12-14T12:13:52;13.07;;;6.20;;
50429;SDS011;36359;41.556;-8.418;2023-12-14T12:16:22;12.25;;;4.85;;
50429;SDS011;36359;41.556;-8.418;2023-12-14T12:18:48;7.43;;;4.00;;
50429;SDS011;36359;41.556;-8.418;2023-12-14T12:21:16;9.43;;;3.60;;
50429;SDS011;36359;41.556;-8.418;2023-12-14T12:23:41;7.15;;;3.70;;
50429;SDS011;36359;41.556;-8.418;2023-12-14T12:26:07;11.35;;;3.80;;
50429;SDS011;36359;41.556;-8.418;2023-12-14T12:28:33;6.47;;;3.30;;
50429;SDS011;36359;41.556;-8.418;2023-12-14T12:30:59;9.18;;;2.80;;
50429;SDS011;36359;41.556;-8.418;2023-12-14T12:33:25;8.15;;;3.35;;
50429;SDS011;36359;41.556;-8.418;2023-12-14T12:35:51;8.40;;;2.72;;
50429;SDS011;36359;41.556;-8.418;2023-12-14T12:38:18;6.32;;;2.85;;
50429;SDS011;36359;41.556;-8.418;2023-12-14T12:40:44;8.98;;;2.13;;
50429;SDS011;36359;41.556;-8.418;2023-12-14T12:43:10;8.57;;;2.80;;
50429;SDS011;36359;41.556;-8.418;2023-12-14T12:45:36;5.03;;;2.25;;
50429;SDS011;36359;41.556;-8.418;2023-12-14T12:48:03;8.05;;;3.08;;
50429;SDS011;36359;41.556;-8.418;2023-12-14T12:50:31;6.07;;;2.75;;
50429;SDS011;36359;41.556;-8.418;2023-12-14T12:52:57;6.90;;;2.75;;
50429;SDS011;36359;41.556;-8.418;2023-12-14T12:55:23;5.05;;;2.72;;
50429;SDS011;36359;41.556;-8.418;2023-12-14T12:57:48;6.97;;;2.47;;
50429;SDS011;36359;41.556;-8.418;2023-12-14T13:00:15;6.00;;;2.45;;
50429;SDS011;36359;41.556;-8.418;2023-12-14T13:02:41;7.15;;;2.55;;
50429;SDS011;36359;41.556;-8.418;2023-12-14T13:05:08;7.70;;;2.58;;
50429;SDS011;36359;41.556;-8.418;2023-12-14T13:07:37;7.05;;;2.30;;
50429;SDS011;36359;41.556;-8.418;2023-12-14T13:10:04;6.45;;;2.78;;
50429;SDS011;36359;41.556;-8.418;2023-12-14T13:12:34;6.82;;;1.80;;
50429;SDS011;36359;41.556;-8.418;2023-12-14T13:15:00;7.60;;;2.78;;
50429;SDS011;36359;41.556;-8.418;2023-12-14T13:19:52;7.20;;;2.17;;
50429;SDS011;36359;41.556;-8.418;2023-12-14T13:22:18;4.78;;;1.77;;
50429;SDS011;36359;41.556;-8.418;2023-12-14T13:24:44;4.10;;;0.93;;
50429;SDS011;36359;41.556;-8.418;2023-12-14T13:27:10;6.18;;;2.15;;
50429;SDS011;36359;41.556;-8.418;2023-12-14T13:29:37;4.15;;;1.40;;
50429;SDS011;36359;41.556;-8.418;2023-12-14T13:32:03;8.40;;;2.17;;
50429;SDS011;36359;41.556;-8.418;2023-12-14T13:34:29;4.32;;;0.98;;
50429;SDS011;36359;41.556;-8.418;2023-12-14T13:36:55;7.50;;;1.13;;
50429;SDS011;36359;41.556;-8.418;2023-12-14T13:39:22;3.47;;;0.85;;
50429;SDS011;36359;41.556;-8.418;2023-12-14T13:41:48;4.38;;;0.90;;
50429;SDS011;36359;41.556;-8.418;2023-12-14T13:44:14;3.35;;;0.63;;
50429;SDS011;36359;41.556;-8.418;2023-12-14T13:46:40;4.00;;;1.05;;
50429;SDS011;36359;41.556;-8.418;2023-12-14T13:49:08;6.25;;;1.10;;
50429;SDS011;36359;41.556;-8.418;2023-12-14T13:51:35;4.55;;;1.17;;
50429;SDS011;36359;41.556;-8.418;2023-12-14T13:54:01;8.65;;;1.50;;
50429;SDS011;36359;41.556;-8.418;2023-12-14T13:56:27;5.28;;;1.48;;
50429;SDS011;36359;41.556;-8.418;2023-12-14T13:58:53;7.25;;;1.02;;
50429;SDS011;36359;41.556;-8.418;2023-12-14T14:01:19;5.90;;;1.42;;
50429;SDS011;36359;41.556;-8.418;2023-12-14T14:03:44;5.03;;;1.05;;
50429;SDS011;36359;41.556;-8.418;2023-12-14T14:06:12;5.38;;;1.30;;
50429;SDS011;36359;41.556;-8.418;2023-12-14T14:08:46;5.28;;;1.30;;
50429;SDS011;36359;41.556;-8.418;2023-12-14T14:11:11;5.10;;;1.17;;
50429;SDS011;36359;41.556;-8.418;2023-12-14T14:13:38;12.98;;;3.55;;
50429;SDS011;36359;41.556;-8.418;2023-12-14T14:16:03;5.72;;;2.15;;
50429;SDS011;36359;41.556;-8.418;2023-12-14T14:18:30;7.28;;;1.58;;
50429;SDS011;36359;41.556;-8.418;2023-12-14T14:20:56;4.78;;;1.50;;
50429;SDS011;36359;41.556;-8.418;2023-12-14T14:23:22;5.65;;;1.98;;
50429;SDS011;36359;41.556;-8.418;2023-12-14T14:25:48;6.25;;;1.75;;